createdAt,value
2019-03-24T00:01:02.338Z,11.17
2019-03-24T00:03:32.518Z,10.73
2019-03-24T00:06:03.741Z,11.53
2019-03-24T00:08:34.004Z,10.93
2019-03-24T00:11:04.449Z,11.90
2019-03-24T00:13:34.591Z,11.53
2019-03-24T00:16:04.880Z,11.63
2019-03-24T00:18:35.124Z,11.13
2019-03-24T00:21:05.317Z,10.67
2019-03-24T00:23:35.496Z,10.87
2019-03-24T00:26:05.776Z,9.70
2019-03-24T00:28:35.955Z,9.80
2019-03-24T00:31:06.663Z,9.57
2019-03-24T00:33:36.633Z,9.83
2019-03-24T00:36:06.796Z,9.70
2019-03-24T00:38:37.025Z,9.50
2019-03-24T00:41:07.264Z,9.83
2019-03-24T00:43:37.511Z,10.23
2019-03-24T00:46:07.810Z,10.47
2019-03-24T00:48:38.053Z,9.87
2019-03-24T00:51:08.220Z,8.53
2019-03-24T00:53:38.368Z,10.13
2019-03-24T00:56:08.530Z,10.50
2019-03-24T00:58:38.629Z,10.97
2019-03-24T01:01:08.860Z,9.73
2019-03-24T01:03:39.090Z,10.57
2019-03-24T01:06:09.399Z,10.53
2019-03-24T01:08:39.580Z,10.20
2019-03-24T01:11:09.781Z,10.80
2019-03-24T01:13:39.910Z,10.23
2019-03-24T01:16:10.154Z,9.87
2019-03-24T01:18:40.219Z,9.80
2019-03-24T01:21:10.373Z,9.63
2019-03-24T01:23:40.718Z,10.47
2019-03-24T01:26:10.944Z,9.90
2019-03-24T01:28:41.084Z,10.67
2019-03-24T01:31:11.866Z,9.13
2019-03-24T01:33:42.022Z,9.67
2019-03-24T01:36:12.294Z,9.67
2019-03-24T01:38:42.511Z,10.00
2019-03-24T01:41:12.574Z,9.70
2019-03-24T01:43:42.891Z,10.30
2019-03-24T01:46:13.108Z,9.83
2019-03-24T01:48:43.490Z,10.70
2019-03-24T01:51:13.842Z,10.40
2019-03-24T01:53:44.037Z,10.53
2019-03-24T01:56:14.188Z,10.43
2019-03-24T01:58:44.200Z,10.10
2019-03-24T02:01:14.352Z,11.23
2019-03-24T02:03:44.538Z,9.47
2019-03-24T02:06:14.701Z,11.13
2019-03-24T02:08:44.767Z,9.60
2019-03-24T02:11:14.955Z,10.77
2019-03-24T02:13:45.135Z,10.07
2019-03-24T02:16:15.379Z,10.10
2019-03-24T02:18:45.447Z,9.87
2019-03-24T02:21:15.803Z,10.47
2019-03-24T02:23:46.017Z,10.47
2019-03-24T02:26:16.063Z,10.57
2019-03-24T02:28:46.247Z,10.53
2019-03-24T02:31:16.399Z,10.10
2019-03-24T02:33:46.410Z,9.20
2019-03-24T02:36:16.661Z,10.43
2019-03-24T02:38:46.852Z,10.33
2019-03-24T02:41:16.952Z,9.20
2019-03-24T02:43:47.403Z,9.53
2019-03-24T02:46:24.250Z,9.20
2019-03-24T02:48:49.508Z,9.60
2019-03-24T02:51:19.790Z,10.03
2019-03-24T02:53:50.069Z,10.33
2019-03-24T02:56:20.108Z,10.07
2019-03-24T02:58:50.204Z,9.30
2019-03-24T03:01:20.388Z,10.00
2019-03-24T03:03:50.468Z,9.20
2019-03-24T03:06:20.715Z,10.13
2019-03-24T03:08:50.889Z,9.40
2019-03-24T03:11:21.137Z,9.63
2019-03-24T03:13:51.214Z,9.73
2019-03-24T03:16:21.594Z,10.57
2019-03-24T03:18:51.749Z,10.47
2019-03-24T03:21:21.941Z,10.33
2019-03-24T03:23:52.141Z,10.20
2019-03-24T03:26:22.273Z,10.03
2019-03-24T03:28:52.315Z,10.13
2019-03-24T03:31:22.392Z,10.97
2019-03-24T03:33:52.651Z,11.53
2019-03-24T03:36:22.919Z,10.43
2019-03-24T03:38:53.082Z,10.87
2019-03-24T03:41:23.331Z,11.20
2019-03-24T03:43:53.622Z,10.67
2019-03-24T03:46:23.766Z,11.10
2019-03-24T03:48:53.940Z,11.23
2019-03-24T03:51:24.132Z,11.47
2019-03-24T03:53:54.314Z,11.23
2019-03-24T03:56:24.595Z,11.57
2019-03-24T03:58:54.743Z,11.90
2019-03-24T04:01:24.881Z,10.43
2019-03-24T04:03:55.065Z,11.00
2019-03-24T04:06:25.305Z,11.70
2019-03-24T04:08:55.402Z,12.37
2019-03-24T04:11:25.444Z,10.53
2019-03-24T04:13:55.622Z,10.73
2019-03-24T04:16:25.823Z,10.23
2019-03-24T04:18:56.040Z,10.57
2019-03-24T04:21:26.299Z,11.73
2019-03-24T04:23:56.361Z,11.20
2019-03-24T04:26:26.519Z,10.77
2019-03-24T04:28:56.684Z,10.63
2019-03-24T04:31:27.081Z,10.57
2019-03-24T04:33:57.330Z,10.00
2019-03-24T04:36:27.507Z,10.80
2019-03-24T04:38:57.602Z,10.73
2019-03-24T04:41:27.780Z,11.63
2019-03-24T04:43:57.815Z,11.00
2019-03-24T04:46:27.981Z,10.53
2019-03-24T04:48:58.263Z,9.57
2019-03-24T04:51:28.429Z,10.97
2019-03-24T04:53:58.522Z,10.47
2019-03-24T04:56:28.814Z,10.93
2019-03-24T04:58:58.904Z,10.13
2019-03-24T05:01:29.030Z,10.63
2019-03-24T05:03:59.205Z,9.90
2019-03-24T05:06:29.526Z,10.83
2019-03-24T05:08:59.898Z,11.10
2019-03-24T05:11:30.030Z,10.17
2019-03-24T05:14:00.188Z,10.40
2019-03-24T05:16:30.152Z,10.80
2019-03-24T05:19:00.257Z,10.17
2019-03-24T05:21:30.276Z,10.70
2019-03-24T05:24:00.378Z,10.10
2019-03-24T05:26:30.555Z,10.70
2019-03-24T05:29:00.750Z,10.03
2019-03-24T05:31:30.925Z,11.20
2019-03-24T05:34:01.067Z,10.57
2019-03-24T05:36:31.323Z,9.63
2019-03-24T05:39:01.426Z,10.53
2019-03-24T05:41:31.512Z,9.77
2019-03-24T05:44:01.734Z,9.40
2019-03-24T05:46:31.941Z,9.60
2019-03-24T05:49:02.009Z,9.93
2019-03-24T05:51:32.160Z,10.20
2019-03-24T05:54:02.365Z,10.70
2019-03-24T05:56:32.414Z,10.23
2019-03-24T05:59:02.722Z,9.97
2019-03-24T06:01:32.813Z,10.63
2019-03-24T06:04:03.045Z,10.67
2019-03-24T06:06:33.197Z,10.07
2019-03-24T06:09:04.800Z,10.67
2019-03-24T06:11:34.843Z,10.57
2019-03-24T06:14:05.204Z,12.37
2019-03-24T06:16:35.578Z,10.77
2019-03-24T06:19:07.195Z,11.13
2019-03-24T06:21:37.287Z,10.63
2019-03-24T06:24:07.464Z,11.90
2019-03-24T06:26:37.519Z,11.03
2019-03-24T06:29:07.565Z,11.20
2019-03-24T06:31:37.813Z,10.17
2019-03-24T06:34:08.014Z,10.33
2019-03-24T06:36:38.259Z,10.63
2019-03-24T06:39:09.337Z,11.20
2019-03-24T06:41:39.402Z,10.67
2019-03-24T06:44:09.684Z,10.87
2019-03-24T06:46:39.867Z,10.60
2019-03-24T06:49:10.012Z,10.33
2019-03-24T06:51:40.256Z,10.17
2019-03-24T06:54:10.298Z,10.07
2019-03-24T06:56:40.639Z,10.20
2019-03-24T06:59:10.836Z,17.43
2019-03-24T07:01:41.176Z,10.57
2019-03-24T07:04:11.545Z,12.03
2019-03-24T07:06:41.751Z,11.80
2019-03-24T07:09:12.020Z,11.43
2019-03-24T07:11:42.265Z,15.17
2019-03-24T07:14:12.459Z,11.60
2019-03-24T07:16:42.550Z,11.30
2019-03-24T07:19:12.567Z,11.30
2019-03-24T07:21:42.860Z,13.40
2019-03-24T07:24:13.047Z,11.60
2019-03-24T07:26:43.080Z,11.63
2019-03-24T07:29:13.463Z,11.77
2019-03-24T07:31:43.629Z,12.37
2019-03-24T07:34:13.879Z,12.20
2019-03-24T07:36:44.098Z,12.80
2019-03-24T07:39:14.281Z,12.73
2019-03-24T07:41:44.464Z,13.00
2019-03-24T07:44:14.498Z,12.23
2019-03-24T07:46:44.582Z,13.13
2019-03-24T07:49:14.774Z,13.13
2019-03-24T07:51:44.721Z,13.57
2019-03-24T07:54:14.883Z,13.23
2019-03-24T07:56:45.137Z,13.47
2019-03-24T07:59:15.365Z,13.23
2019-03-24T08:01:45.595Z,13.47
2019-03-24T08:04:15.794Z,13.03
2019-03-24T08:06:45.944Z,13.13
2019-03-24T08:09:16.226Z,12.97
2019-03-24T08:11:46.551Z,13.33
2019-03-24T08:14:16.715Z,13.70
2019-03-24T08:16:46.821Z,13.30
2019-03-24T08:19:17.082Z,13.13
2019-03-24T08:21:47.210Z,13.20
2019-03-24T08:24:17.501Z,13.03
2019-03-24T08:26:47.640Z,13.23
2019-03-24T08:29:17.678Z,12.67
2019-03-24T08:31:47.867Z,12.77
2019-03-24T08:34:18.090Z,12.43
2019-03-24T08:36:48.409Z,13.23
2019-03-24T08:39:18.513Z,13.20
2019-03-24T08:41:48.602Z,12.27
2019-03-24T08:44:18.944Z,12.73
2019-03-24T08:46:49.359Z,11.33
2019-03-24T08:49:20.714Z,11.67
2019-03-24T08:51:51.310Z,11.60
2019-03-24T08:54:21.574Z,11.67
2019-03-24T08:56:51.856Z,11.70
2019-03-24T08:59:22.129Z,10.60
2019-03-24T09:01:52.404Z,9.97
2019-03-24T09:04:22.717Z,9.00
2019-03-24T09:06:52.948Z,7.67
2019-03-24T09:09:23.179Z,9.77
2019-03-24T09:11:53.290Z,9.23
2019-03-24T09:14:23.545Z,8.63
2019-03-24T09:16:53.919Z,8.00
2019-03-24T09:19:24.079Z,8.70
2019-03-24T09:21:55.277Z,7.90
2019-03-24T09:24:25.398Z,8.27
2019-03-24T09:26:55.575Z,7.53
2019-03-24T09:29:25.780Z,8.53
2019-03-24T09:31:56.026Z,8.17
2019-03-24T09:34:26.325Z,7.10
2019-03-24T09:36:56.610Z,7.67
2019-03-24T09:39:26.748Z,7.70
2019-03-24T09:41:56.955Z,8.43
2019-03-24T09:44:27.023Z,7.53
2019-03-24T09:46:57.335Z,7.23
2019-03-24T09:49:27.348Z,7.37
2019-03-24T09:51:57.488Z,8.93
2019-03-24T09:54:27.664Z,8.40
2019-03-24T09:56:57.879Z,7.60
2019-03-24T09:59:28.113Z,7.83
2019-03-24T10:01:58.292Z,7.87
2019-03-24T10:04:28.498Z,7.37
2019-03-24T10:06:58.526Z,7.07
2019-03-24T10:09:28.759Z,6.87
2019-03-24T10:11:59.062Z,7.70
2019-03-24T10:14:29.271Z,6.87
2019-03-24T10:16:59.571Z,6.40
2019-03-24T10:19:30.698Z,7.57
2019-03-24T10:22:00.787Z,10.83
2019-03-24T10:24:30.935Z,7.73
2019-03-24T10:27:01.195Z,7.07
2019-03-24T10:29:31.392Z,6.57
2019-03-24T10:32:01.461Z,6.27
2019-03-24T10:34:31.620Z,6.27
2019-03-24T10:37:01.831Z,6.17
2019-03-24T10:39:32.173Z,6.43
2019-03-24T10:42:02.216Z,11.80
2019-03-24T10:44:32.489Z,7.80
2019-03-24T10:47:02.665Z,9.97
2019-03-24T10:49:32.823Z,6.03
2019-03-24T10:52:03.007Z,6.37
2019-03-24T10:54:33.218Z,6.17
2019-03-24T10:57:05.343Z,6.57
2019-03-24T10:59:35.331Z,7.40
2019-03-24T11:02:05.543Z,6.90
2019-03-24T11:04:35.788Z,6.70
2019-03-24T11:07:06.081Z,6.93
2019-03-24T11:09:36.366Z,6.90
2019-03-24T11:12:06.663Z,6.50
2019-03-24T11:14:36.843Z,6.37
2019-03-24T11:17:07.022Z,6.60
2019-03-24T11:19:37.330Z,6.63
2019-03-24T11:22:07.610Z,7.27
2019-03-24T11:24:37.756Z,6.90
2019-03-24T11:27:07.913Z,7.47
2019-03-24T11:29:37.891Z,6.93
2019-03-24T11:32:08.050Z,7.27
2019-03-24T11:34:38.143Z,7.37
2019-03-24T11:37:08.384Z,6.97
2019-03-24T11:39:38.603Z,7.50
2019-03-24T11:42:08.913Z,7.27
2019-03-24T11:44:39.118Z,7.43
2019-03-24T11:47:09.301Z,7.50
2019-03-24T11:49:45.899Z,8.03
2019-03-24T11:52:11.434Z,8.13
2019-03-24T11:54:41.666Z,7.90
2019-03-24T11:57:11.834Z,8.17
2019-03-24T11:59:41.984Z,8.20
2019-03-24T12:02:12.186Z,8.57
2019-03-24T12:04:45.303Z,7.00
2019-03-24T12:07:15.483Z,7.80
2019-03-24T12:09:47.359Z,7.13
2019-03-24T12:12:17.526Z,7.53
2019-03-24T12:14:47.816Z,8.03
2019-03-24T12:17:18.052Z,8.20
2019-03-24T12:19:56.494Z,7.60
2019-03-24T12:22:20.308Z,7.90
2019-03-24T12:24:50.604Z,6.83
2019-03-24T12:27:20.786Z,7.17
2019-03-24T12:29:50.928Z,7.10
2019-03-24T12:32:21.117Z,6.73
2019-03-24T12:34:51.143Z,7.40
2019-03-24T12:37:21.506Z,7.00
2019-03-24T12:39:51.891Z,7.40
2019-03-24T12:42:22.041Z,6.00
2019-03-24T12:44:52.101Z,7.27
2019-03-24T12:47:22.806Z,7.10
2019-03-24T12:49:52.958Z,6.70
2019-03-24T12:52:23.164Z,6.87
2019-03-24T12:54:53.216Z,6.33
2019-03-24T12:57:23.382Z,7.23
2019-03-24T12:59:53.516Z,6.67
2019-03-24T13:02:24.087Z,6.87
2019-03-24T13:04:54.429Z,7.10
2019-03-24T13:07:24.728Z,6.43
2019-03-24T13:09:54.807Z,6.33
2019-03-24T13:12:25.117Z,6.23
2019-03-24T13:14:55.376Z,6.53
2019-03-24T13:17:25.609Z,6.03
2019-03-24T13:19:55.891Z,6.87
2019-03-24T13:22:26.076Z,6.47
2019-03-24T13:24:56.098Z,6.47
2019-03-24T13:27:26.414Z,6.20
2019-03-24T13:29:56.567Z,6.13
2019-03-24T13:32:26.736Z,6.43
2019-03-24T13:34:56.894Z,6.07
2019-03-24T13:37:27.240Z,5.93
2019-03-24T13:39:57.418Z,6.33
2019-03-24T13:42:27.589Z,6.40
2019-03-24T13:44:57.977Z,6.70
2019-03-24T13:47:28.269Z,7.10
2019-03-24T13:49:58.303Z,7.35
2019-03-24T13:52:28.542Z,7.20
2019-03-24T13:54:58.740Z,7.23
2019-03-24T13:57:28.847Z,7.60
2019-03-24T13:59:59.023Z,6.03
2019-03-24T14:02:29.356Z,6.23
2019-03-24T14:04:59.433Z,6.10
2019-03-24T14:07:29.563Z,12.07
2019-03-24T14:09:59.672Z,6.90
2019-03-24T14:12:29.961Z,6.47
2019-03-24T14:15:00.321Z,6.80
2019-03-24T14:17:30.686Z,6.97
2019-03-24T14:20:00.944Z,7.57
2019-03-24T14:22:31.004Z,5.83
2019-03-24T14:25:01.279Z,7.60
2019-03-24T14:27:31.480Z,6.53
2019-03-24T14:30:01.663Z,6.47
2019-03-24T14:32:31.895Z,6.60
2019-03-24T14:35:02.080Z,6.93
2019-03-24T14:37:32.306Z,6.77
2019-03-24T14:40:02.576Z,9.27
2019-03-24T14:42:32.833Z,7.30
2019-03-24T14:45:02.922Z,9.60
2019-03-24T14:47:33.158Z,7.00
2019-03-24T14:50:03.433Z,7.63
2019-03-24T14:52:33.675Z,6.20
2019-03-24T14:55:03.924Z,8.90
2019-03-24T14:57:34.097Z,7.40
2019-03-24T15:00:05.129Z,7.23
2019-03-24T15:02:35.345Z,6.50
2019-03-24T15:05:06.202Z,6.57
2019-03-24T15:07:36.505Z,6.33
2019-03-24T15:10:06.978Z,6.17
2019-03-24T15:12:37.308Z,7.00
2019-03-24T15:15:07.855Z,6.83
2019-03-24T15:17:38.176Z,7.20
2019-03-24T15:20:08.529Z,6.63
2019-03-24T15:22:38.680Z,6.70
2019-03-24T15:25:08.934Z,6.27
2019-03-24T15:27:39.190Z,7.13
2019-03-24T15:30:10.443Z,7.97
2019-03-24T15:32:40.657Z,6.70
2019-03-24T15:35:11.171Z,6.17
2019-03-24T15:37:41.290Z,6.43
2019-03-24T15:40:11.645Z,6.47
2019-03-24T15:42:41.771Z,6.23
2019-03-24T15:45:12.130Z,6.73
2019-03-24T15:47:42.380Z,6.83
2019-03-24T15:50:12.995Z,5.83
2019-03-24T15:52:43.200Z,5.70
2019-03-24T15:55:13.397Z,4.93
2019-03-24T15:57:43.569Z,5.03
2019-03-24T16:00:14.348Z,4.87
2019-03-24T16:02:44.572Z,4.30
2019-03-24T16:05:14.862Z,4.10
2019-03-24T16:07:45.012Z,4.30
2019-03-24T16:10:16.140Z,3.90
2019-03-24T16:12:46.309Z,4.70
2019-03-24T16:15:16.625Z,4.27
2019-03-24T16:17:46.760Z,3.90
2019-03-24T16:20:16.879Z,4.33
2019-03-24T16:22:46.925Z,4.57
2019-03-24T16:25:16.994Z,5.20
2019-03-24T16:27:47.291Z,5.57
2019-03-24T16:30:17.556Z,5.97
2019-03-24T16:32:49.488Z,5.23
2019-03-24T16:35:19.673Z,4.40
2019-03-24T16:37:49.838Z,4.23
2019-03-24T16:40:20.027Z,4.27
2019-03-24T16:42:50.153Z,4.47
2019-03-24T16:45:20.342Z,4.50
2019-03-24T16:47:50.598Z,4.70
2019-03-24T16:50:20.887Z,5.07
2019-03-24T16:52:51.099Z,4.73
2019-03-24T16:55:21.260Z,4.97
2019-03-24T16:57:51.604Z,5.60
2019-03-24T17:00:22.139Z,5.37
2019-03-24T17:02:52.370Z,5.33
2019-03-24T17:05:22.510Z,5.17
2019-03-24T17:07:52.668Z,6.13
2019-03-24T17:10:22.715Z,6.47
2019-03-24T17:12:53.066Z,7.13
2019-03-24T17:15:23.295Z,8.53
2019-03-24T17:17:53.431Z,8.20
2019-03-24T17:20:23.723Z,8.27
2019-03-24T17:22:53.817Z,7.43
2019-03-24T17:25:25.081Z,8.00
2019-03-24T17:27:55.291Z,8.57
2019-03-24T17:30:25.310Z,8.87
2019-03-24T17:32:55.504Z,6.87
2019-03-24T17:35:25.731Z,7.90
2019-03-24T17:37:55.983Z,9.27
2019-03-24T17:40:26.306Z,6.70
2019-03-24T17:42:57.071Z,7.40
2019-03-24T17:45:27.366Z,7.73
2019-03-24T17:47:57.542Z,8.57
2019-03-24T17:50:27.791Z,8.43
2019-03-24T17:52:58.150Z,7.17
2019-03-24T17:55:30.876Z,7.77
2019-03-24T17:58:00.300Z,8.00
2019-03-24T18:00:42.163Z,11.43
2019-03-24T18:03:12.485Z,15.73
2019-03-24T18:05:42.889Z,13.10
2019-03-24T18:08:13.176Z,12.93
2019-03-24T18:10:43.410Z,12.23
2019-03-24T18:13:13.541Z,14.43
2019-03-24T18:15:43.795Z,15.93
2019-03-24T18:18:13.919Z,16.60
2019-03-24T18:20:44.076Z,15.63
2019-03-24T18:23:14.178Z,13.93
2019-03-24T18:25:44.425Z,12.97
2019-03-24T18:28:14.644Z,13.00
2019-03-24T18:30:44.810Z,13.87
2019-03-24T18:33:15.149Z,11.93
2019-03-24T18:35:45.274Z,13.77
2019-03-24T18:38:15.481Z,11.70
2019-03-24T18:40:45.771Z,12.47
2019-03-24T18:43:15.868Z,13.13
2019-03-24T18:45:46.136Z,13.33
2019-03-24T18:48:16.464Z,11.93
2019-03-24T18:50:46.659Z,13.33
2019-03-24T18:53:16.901Z,12.30
2019-03-24T18:55:47.112Z,12.83
2019-03-24T18:58:17.331Z,12.53
2019-03-24T19:00:47.442Z,12.77
2019-03-24T19:03:17.701Z,12.83
2019-03-24T19:05:47.955Z,11.03
2019-03-24T19:08:18.132Z,11.10
2019-03-24T19:10:48.307Z,10.77
2019-03-24T19:13:18.578Z,9.80
2019-03-24T19:15:48.753Z,10.33
2019-03-24T19:18:18.899Z,10.20
2019-03-24T19:20:49.170Z,9.50
2019-03-24T19:23:19.411Z,9.47
2019-03-24T19:25:49.613Z,10.17
2019-03-24T19:28:19.801Z,9.13
2019-03-24T19:30:49.883Z,8.70
2019-03-24T19:33:20.339Z,9.63
2019-03-24T19:35:50.566Z,11.23
2019-03-24T19:38:21.584Z,11.03
2019-03-24T19:40:51.769Z,11.17
2019-03-24T19:43:21.928Z,11.53
2019-03-24T19:45:52.128Z,10.83
2019-03-24T19:48:22.271Z,12.60
2019-03-24T19:50:52.550Z,11.30
2019-03-24T19:53:22.875Z,11.63
2019-03-24T19:55:53.131Z,9.37
2019-03-24T19:58:23.306Z,8.73
2019-03-24T20:00:53.443Z,8.10
2019-03-24T20:03:23.531Z,8.57
2019-03-24T20:05:53.808Z,9.17
2019-03-24T20:08:24.006Z,9.40
2019-03-24T20:10:56.011Z,10.17
2019-03-24T20:13:26.230Z,8.90
2019-03-24T20:15:56.460Z,8.60
2019-03-24T20:18:26.817Z,10.67
2019-03-24T20:20:57.005Z,8.87
2019-03-24T20:23:27.179Z,9.67
2019-03-24T20:25:57.547Z,10.53
2019-03-24T20:28:27.728Z,12.50
2019-03-24T20:30:57.911Z,11.60
2019-03-24T20:33:28.138Z,10.80
2019-03-24T20:35:58.192Z,10.30
2019-03-24T20:38:29.304Z,9.97
2019-03-24T20:40:59.548Z,11.07
2019-03-24T20:43:29.709Z,11.80
2019-03-24T20:45:59.905Z,10.37
2019-03-24T20:48:30.062Z,12.87
2019-03-24T20:51:00.311Z,14.60
2019-03-24T20:53:30.564Z,19.60
2019-03-24T20:56:00.763Z,18.37
2019-03-24T20:58:30.973Z,16.80
2019-03-24T21:01:01.300Z,18.90
2019-03-24T21:03:31.601Z,24.87
2019-03-24T21:06:01.722Z,21.47
2019-03-24T21:08:31.791Z,18.37
2019-03-24T21:11:02.019Z,19.93
2019-03-24T21:13:32.281Z,17.97
2019-03-24T21:16:02.553Z,15.70
2019-03-24T21:18:32.643Z,13.67
2019-03-24T21:21:02.831Z,12.67
2019-03-24T21:23:32.861Z,9.70
2019-03-24T21:26:03.150Z,7.63
2019-03-24T21:28:33.241Z,6.90
2019-03-24T21:31:03.453Z,8.13
2019-03-24T21:33:33.656Z,7.40
2019-03-24T21:36:03.970Z,7.37
2019-03-24T21:38:33.997Z,7.00
2019-03-24T21:41:05.532Z,6.63
2019-03-24T21:43:35.634Z,6.00
2019-03-24T21:46:05.929Z,7.27
2019-03-24T21:48:36.172Z,6.27
2019-03-24T21:51:06.455Z,6.83
2019-03-24T21:53:40.916Z,6.73
2019-03-24T21:56:08.522Z,6.20
2019-03-24T21:58:38.571Z,7.03
2019-03-24T22:01:08.692Z,6.97
2019-03-24T22:03:38.888Z,7.30
2019-03-24T22:06:09.194Z,6.50
2019-03-24T22:08:39.254Z,7.33
2019-03-24T22:11:09.304Z,7.27
2019-03-24T22:13:39.522Z,6.93
2019-03-24T22:16:09.767Z,6.50
2019-03-24T22:18:39.956Z,7.70
2019-03-24T22:21:10.256Z,7.63
2019-03-24T22:23:51.596Z,7.80
2019-03-24T22:26:12.308Z,8.30
2019-03-24T22:28:42.497Z,8.00
2019-03-24T22:31:12.695Z,8.20
2019-03-24T22:33:42.923Z,8.37
2019-03-24T22:36:13.170Z,8.07
2019-03-24T22:38:43.713Z,7.87
2019-03-24T22:41:13.941Z,8.73
2019-03-24T22:43:44.021Z,9.17
2019-03-24T22:46:14.220Z,10.03
2019-03-24T22:48:44.464Z,9.93
2019-03-24T22:51:14.699Z,10.73
2019-03-24T22:53:45.041Z,10.53
2019-03-24T22:56:15.189Z,9.53
2019-03-24T22:58:45.363Z,9.97
2019-03-24T23:01:17.372Z,10.03
2019-03-24T23:03:47.643Z,9.73
2019-03-24T23:06:17.916Z,10.30
2019-03-24T23:08:48.259Z,9.73
2019-03-24T23:11:18.518Z,10.63
2019-03-24T23:13:48.734Z,11.00
2019-03-24T23:16:18.924Z,11.20
2019-03-24T23:18:49.179Z,11.07
2019-03-24T23:21:19.386Z,11.27
2019-03-24T23:23:49.556Z,9.30
2019-03-24T23:26:19.615Z,10.20
2019-03-24T23:28:49.977Z,11.37
2019-03-24T23:31:19.994Z,10.47
2019-03-24T23:33:50.145Z,10.60
2019-03-24T23:36:20.168Z,10.60
2019-03-24T23:38:50.398Z,9.60
2019-03-24T23:41:20.509Z,10.13
2019-03-24T23:43:50.688Z,9.83
2019-03-24T23:46:20.876Z,9.27
2019-03-24T23:48:51.001Z,9.83
2019-03-24T23:51:21.303Z,10.17
2019-03-24T23:53:51.496Z,9.73
2019-03-24T23:56:21.652Z,9.50
2019-03-24T23:58:51.865Z,8.77
